Nearby METAR Reports

METAR is the scheduled surface weather observation taken hourly at civil and military airport locations.

METAR is an acronym from the French language and roughly translates as Aviation Routine Weather Report.

 

EGPL - Benbecula Island, United Kingdom
Distance from station: WNW 41mi, 66km
Updated: 20/11/2017 17:20
Mist, Overcast
Mist, Overcast
 Wind from ENE
Wind: ENE 13 mph , 20 km/h
Temperature: 8°C
Wind Chill: 4°C
Dew Point: 8°C
Humidity: 100%
Barometer: 1005 hPa
Summary: Mist
Clouds: Overcast
Visibility: 3 miles , 5 km
Cloud details: Overcast 152 m
2017/11/20 17:20 EGPL 201720Z AUTO 06011KT 4700 BR OVC005/// 08/08 Q1005
EGPU - Tiree Island, United Kingdom
Distance from station: SSW 56mi, 90km
Updated: 20/11/2017 17:20
Fog, Partly cloudy
Fog, Partly cloudy
 Wind from SW
Wind: SW 6 mph , 9 km/h
Temperature: 10°C
Wind Chill: 9°C
Dew Point: 10°C
Humidity: 100%
Barometer: 1005 hPa
Summary: Fog
Clouds: Partly cloudy
Visibility: 1 mile , 1 km
Cloud details: Mostly cloudy 61 m
Partly cloudy 305 m
2017/11/20 17:20 EGPU 201720Z 23005KT 0900 FG BKN002 SCT010 10/10 Q1005
 
EGEO - Oban Airport, United Kingdom
Distance from station: SE 65mi, 105km
Updated: 20/11/2017 15:50
NOT Current
Drizzle, Mist, Overcast
Drizzle, Mist, Overcast
 Wind from E
Wind: E 8 mph , 13 km/h
Temperature: 7°C
Wind Chill: 5°C
Dew Point: 6°C
Humidity: 93%
Barometer: 1006 hPa
Summary: Drizzle, Mist
Clouds: Overcast
Visibility: 2 miles , 4 km
Cloud details: Partly cloudy 152 m
Overcast 366 m
2017/11/20 15:50 EGEO 201550Z 10007KT 4000 DZ BR SCT005 OVC012 07/06 Q1006
EGPO - Stornoway, United Kingdom
Distance from station: 0 66mi, 106km
Updated: 20/11/2017 17:20
Mostly cloudy
Mostly cloudy
 Wind from ENE
Wind: ENE 15 mph , 24 km/h
Temperature: 8°C
Wind Chill: 4°C
Dew Point: 6°C
Humidity: 87%
Barometer: 1008 hPa
Clouds: Mostly cloudy
Visibility: 6 miles , 10 km
Cloud details: Few Clouds 427 m
Mostly cloudy 549 m
2017/11/20 17:20 EGPO 201720Z 07013KT 9999 FEW014 BKN018 08/06 Q1008
 
EGPE - Inverness/Dalcro, United Kingdom
Distance from station: ENE 88mi, 141km
Updated: 20/11/2017 17:20
Mostly cloudy
Mostly cloudy
 Wind from calm
Wind: Calm
Temperature: 5°C
Dew Point: 4°C
Humidity: 93%
Barometer: 1008 hPa
Clouds: Mostly cloudy
Visibility: 6 miles , 10 km
Cloud details: Few Clouds 183 m
Mostly cloudy 1097 m
2017/11/20 17:20 EGPE 201720Z 00000KT 9999 FEW006 BKN036 05/04 Q1008
EGQA - Tain Range (saws, United Kingdom
Distance from station: ENE 97mi, 156km
Updated: 20/11/2017 15:50
NOT Current
Rain drizzle, Mostly cloudy
Rain drizzle, Mostly cloudy
 Wind from E
Wind: E 13 mph , 20 km/h
Summary: Rain Drizzle
Clouds: Mostly cloudy
Visibility: 6 miles , 10 km
Cloud details: Few Clouds 91 m
Mostly cloudy 244 m
2017/11/20 15:50 EGQA 201550Z 09011KT 9999 RADZ FEW003 BKN008 07/// Q1008 GRN
 
EGQK - Kinloss Raf, United Kingdom
Distance from station: ENE 107mi, 171km
Updated: 20/11/2017 16:50
Overcast
Overcast
 Wind from E
Wind: E 9 mph , 15 km/h
Temperature: 6°C
Wind Chill: 3°C
Dew Point: 5°C
Humidity: 93%
Barometer: 1008 hPa
Clouds: Overcast
Visibility: 6 miles , 10 km
Cloud details: Overcast 1097 m
2017/11/20 16:50 EGQK 201650Z AUTO 09008KT 9999 OVC036/// 06/05 Q1008 RERA
EGPI - Islay/Port Ellen, United Kingdom
Distance from station: S 110mi, 177km
Updated: 20/11/2017 17:20
Mostly cloudy
Mostly cloudy
 Wind from W
Wind: W 10 mph , 17 km/h
Temperature: 11°C
Dew Point: 10°C
Humidity: 94%
Barometer: 1006 hPa
Clouds: Mostly cloudy
Visibility: 6 miles , 10 km
Cloud details: Few Clouds 122 m
Partly cloudy 183 m
Mostly cloudy 488 m
2017/11/20 17:20 EGPI 201720Z 27009KT 9999 FEW004 SCT006 BKN016 11/10 Q1006
 
EGQS - Lossiemouth Raf, United Kingdom
Distance from station: ENE 117mi, 188km
Updated: 20/11/2017 16:50
Overcast
Overcast
 Wind from ESE
Wind: ESE 10 mph , 17 km/h
Temperature: 6°C
Wind Chill: 3°C
Dew Point: 5°C
Humidity: 93%
Barometer: 1008 hPa
Clouds: Overcast
Visibility: 6 miles , 10 km
Cloud details: Few Clouds 305 m
Partly cloudy 884 m
Overcast 1097 m
2017/11/20 16:50 EGQS 201650Z 11009KT 9999 FEW010 SCT029 OVC036 06/05 Q1008 BLU TEMPO SCT010 GRN
EGPF - Glasgow Airport, United Kingdom
Distance from station: SE 121mi, 195km
Updated: 20/11/2017 17:20
Mist, Overcast
Mist, Overcast
 Wind from varies
Wind: varies 2 mph , 4 km/h
Temperature: 7°C
Dew Point: 6°C
Humidity: 93%
Barometer: 1007 hPa
Summary: Mist
Clouds: Overcast
Visibility: 1 mile , 2 km
Cloud details: Overcast 61 m
2017/11/20 17:20 EGPF 201720Z VRB02KT 1500 BR OVC002 07/06 Q1007
 
EGEC - Campbeltown, United Kingdom
Distance from station: SSE 129mi, 207km
Updated: 20/11/2017 17:20
Light rain, Mostly cloudy
Light rain, Mostly cloudy
 Wind from W
Wind: W 13 mph , 20 km/h
Temperature: 11°C
Dew Point: 11°C
Humidity: 100%
Barometer: 1007 hPa
Summary: Light rain
Clouds: Mostly cloudy
Visibility: 6 miles , 10 km
Cloud details: Few Clouds 122 m
Mostly cloudy 183 m
2017/11/20 17:20 EGEC 201720Z 28011KT 9999 -RA FEW004 BKN006 11/11 Q1007
EGPN - Dundee/Riverside, United Kingdom
Distance from station: ESE 137mi, 221km
Updated: 20/11/2017 17:20
Light rain, Mostly cloudy
Light rain, Mostly cloudy
 Wind from NNE
Wind: NNE 5 mph , 7 km/h
Temperature: 8°C
Wind Chill: 7°C
Dew Point: 7°C
Humidity: 93%
Barometer: 1007 hPa
Summary: Light rain
Clouds: Mostly cloudy
Visibility: 6 miles , 9 km
Cloud details: Few Clouds 61 m
Mostly cloudy 213 m
2017/11/20 17:20 EGPN 201720Z 02004KT 320V060 9000 -RA FEW002 BKN007 08/07 Q1007
 
EGPK - Prestwick(Civ/Na, United Kingdom
Distance from station: SSE 139mi, 224km
Updated: 20/11/2017 17:20
Mostly cloudy
Mostly cloudy
 Wind from WSW
Wind: WSW 9 mph , 15 km/h
Temperature: 11°C
Dew Point: 10°C
Humidity: 94%
Barometer: 1007 hPa
Clouds: Mostly cloudy
Visibility: 5 miles , 8 km
Cloud details: Few Clouds 61 m
Partly cloudy 122 m
Mostly cloudy 335 m
2017/11/20 17:20 EGPK 201720Z 25008KT 8000 FEW002 SCT004 BKN011 11/10 Q1007
EGQL - Leuchars Raf, United Kingdom
Distance from station: ESE 145mi, 233km
Updated: 20/11/2017 16:50
Mostly cloudy
Mostly cloudy
 Wind from WNW
Wind: WNW 7 mph , 11 km/h
Temperature: 8°C
Wind Chill: 6°C
Dew Point: 8°C
Humidity: 100%
Barometer: 1007 hPa
Clouds: Mostly cloudy
Visibility: 6 miles , 10 km
Cloud details: Mostly cloudy 122 m
Mostly cloudy 701 m
2017/11/20 16:50 EGQL 201650Z 30006KT 9999 BKN004 BKN023 08/08 Q1007 YLO2
 
EGPH - Edinburgh Airpor, United Kingdom
Distance from station: SE 145mi, 234km
Updated: 20/11/2017 17:20
Drizzle, Overcast
Drizzle, Overcast
 Wind from W
Wind: W 2 mph , 4 km/h
Temperature: 6°C
Dew Point: 6°C
Humidity: 100%
Barometer: 1007 hPa
Summary: Drizzle
Clouds: Overcast
Visibility: 2 miles , 4 km
Cloud details: Mostly cloudy 122 m
Overcast 610 m
2017/11/20 17:20 EGPH 201720Z 27002KT 4000 DZ BKN004 OVC020 06/06 Q1007
EGPC - Wick, United Kingdom
Distance from station: NE 146mi, 234km
Updated: 20/11/2017 17:20
Mostly cloudy
Mostly cloudy
 Wind from E
Wind: E 14 mph , 22 km/h
Temperature: 6°C
Wind Chill: 2°C
Dew Point: 2°C
Humidity: 76%
Barometer: 1009 hPa
Clouds: Mostly cloudy
Visibility: 6 miles , 10 km
Cloud details: Mostly cloudy 914 m
2017/11/20 17:20 EGPC 201720Z 08012KT 9999 BKN030 06/02 Q1009

-

free counters
QR Code Twitter Scottish Weather Network UK Weather Network
Argyll House B & B

Argyll House B & B is situated in North West Skye and is the perfect base to see all that the Isle of Skye has to offer.
Bookings been taken for 2018.